createdAt,value
2023-03-04T00:04:14.986Z,7.57
2023-03-04T00:09:18.658Z,7.33
2023-03-04T00:14:22.524Z,7.53
2023-03-04T00:19:27.539Z,7.65
2023-03-04T00:24:31.320Z,7.60
2023-03-04T00:29:34.714Z,8.63
2023-03-04T00:34:40.716Z,8.60
2023-03-04T00:39:44.369Z,9.07
2023-03-04T00:44:48.189Z,8.77
2023-03-04T00:49:53.502Z,10.35
2023-03-04T00:54:56.896Z,9.32
2023-03-04T01:00:00.622Z,10.75
2023-03-04T01:05:06.232Z,10.63
2023-03-04T01:10:13.082Z,9.98
2023-03-04T01:15:17.114Z,10.70
2023-03-04T01:20:22.162Z,10.18
2023-03-04T01:25:25.426Z,6.20
2023-03-04T01:30:28.847Z,9.27
2023-03-04T01:35:34.689Z,9.02
2023-03-04T01:40:39.140Z,8.30
2023-03-04T01:45:42.474Z,8.68
2023-03-04T01:50:47.178Z,8.70
2023-03-04T01:55:51.220Z,8.53
2023-03-04T02:00:54.454Z,8.70
2023-03-04T02:05:59.020Z,9.07
2023-03-04T02:11:02.248Z,8.23
2023-03-04T02:16:05.883Z,8.73
2023-03-04T02:21:16.591Z,8.80
2023-03-04T02:26:23.603Z,8.80
2023-03-04T02:31:31.714Z,8.13
2023-03-04T02:36:36.278Z,8.85
2023-03-04T02:41:41.412Z,9.40
2023-03-04T02:46:44.993Z,9.00
2023-03-04T02:51:52.041Z,7.38
2023-03-04T02:56:59.928Z,9.65
2023-03-04T03:02:04.350Z,9.10
2023-03-04T03:07:07.858Z,7.72
2023-03-04T03:12:12.775Z,9.13
2023-03-04T03:17:16.924Z,8.93
2023-03-04T03:22:20.557Z,9.15
2023-03-04T03:27:26.040Z,9.73
2023-03-04T03:32:29.758Z,9.32
2023-03-04T03:37:33.302Z,9.05
2023-03-04T03:42:38.268Z,8.68
2023-03-04T03:47:41.488Z,9.80
2023-03-04T03:52:44.741Z,9.15
2023-03-04T03:57:49.567Z,8.57
2023-03-04T04:02:53.867Z,8.83
2023-03-04T04:07:57.143Z,9.10
2023-03-04T04:13:01.808Z,9.15
2023-03-04T04:18:05.475Z,8.23
2023-03-04T04:23:10.205Z,9.27
2023-03-04T04:28:15.005Z,8.98
2023-03-04T04:33:18.523Z,9.27
2023-03-04T04:38:21.970Z,9.73
2023-03-04T04:43:27.600Z,8.68
2023-03-04T04:53:34.047Z,9.32
2023-03-04T04:58:39.671Z,8.23
2023-03-04T05:08:46.974Z,7.10
2023-03-04T05:13:51.945Z,8.38
2023-03-04T05:18:55.435Z,9.73
2023-03-04T05:24:01.258Z,8.05
2023-03-04T05:29:06.031Z,8.40
2023-03-04T05:34:09.305Z,9.67
2023-03-04T05:39:12.579Z,8.25
2023-03-04T05:44:17.261Z,9.00
2023-03-04T05:49:20.746Z,7.83
2023-03-04T05:54:24.298Z,7.78
2023-03-04T05:59:29.246Z,8.77
2023-03-04T06:04:33.079Z,7.35
2023-03-04T06:09:36.401Z,8.32
2023-03-04T06:14:41.033Z,8.82
2023-03-04T06:19:44.614Z,8.50
2023-03-04T06:24:50.454Z,9.25
2023-03-04T06:29:55.120Z,10.02
2023-03-04T06:34:58.347Z,7.77
2023-03-04T06:40:02.027Z,8.50
2023-03-04T06:45:07.989Z,7.60
2023-03-04T06:50:13.387Z,7.63
2023-03-04T06:55:16.941Z,6.35
2023-03-04T07:00:24.008Z,7.32
2023-03-04T07:05:27.332Z,6.78
2023-03-04T07:10:31.036Z,8.57
2023-03-04T07:15:36.263Z,10.63
2023-03-04T07:20:39.898Z,7.23
2023-03-04T07:25:43.418Z,7.90
2023-03-04T07:30:48.059Z,7.03
2023-03-04T07:35:59.360Z,7.30
2023-03-04T07:41:03.270Z,6.20
2023-03-04T07:46:08.378Z,5.93
2023-03-04T07:51:13.782Z,6.20
2023-03-04T07:56:19.396Z,5.38
2023-03-04T08:01:26.327Z,6.28
2023-03-04T08:06:30.305Z,5.85
2023-03-04T08:11:35.019Z,5.68
2023-03-04T08:16:39.786Z,4.87
2023-03-04T08:21:43.037Z,5.80
2023-03-04T08:26:48.157Z,5.93
2023-03-04T08:31:54.348Z,4.57
2023-03-04T08:36:57.770Z,4.63
2023-03-04T08:42:01.027Z,4.93
2023-03-04T08:47:09.275Z,3.95
2023-03-04T08:52:12.544Z,4.00
2023-03-04T08:57:15.921Z,4.30
2023-03-04T09:02:20.530Z,3.50
2023-03-04T09:07:25.485Z,2.95
2023-03-04T09:12:28.765Z,2.53
2023-03-04T09:17:33.776Z,3.05
2023-03-04T09:22:37.216Z,2.47
2023-03-04T09:27:40.540Z,2.63
2023-03-04T09:32:45.127Z,1.88
2023-03-04T09:37:49.779Z,2.27
2023-03-04T09:42:58.114Z,2.73
2023-03-04T09:48:03.873Z,2.00
2023-03-04T09:53:15.931Z,2.10
2023-03-04T09:58:32.273Z,1.95
2023-03-04T10:03:45.743Z,2.25
2023-03-04T10:08:55.924Z,2.88
2023-03-04T10:14:11.977Z,2.00
2023-03-04T10:19:38.180Z,4.53
2023-03-04T10:24:41.484Z,1.83
2023-03-04T10:29:45.829Z,2.00
2023-03-04T10:34:51.455Z,2.60
2023-03-04T10:39:54.787Z,2.28
2023-03-04T10:44:59.947Z,2.03
2023-03-04T10:50:06.546Z,1.75
2023-03-04T10:55:17.839Z,1.70
2023-03-04T11:00:32.096Z,3.03
2023-03-04T11:05:36.946Z,1.80
2023-03-04T11:10:41.933Z,3.17
2023-03-04T11:15:54.528Z,2.83
2023-03-04T11:21:01.992Z,2.63
2023-03-04T11:26:10.347Z,1.60
2023-03-04T11:31:17.616Z,1.63
2023-03-04T11:36:30.395Z,1.90
2023-03-04T11:41:36.768Z,1.35
2023-03-04T11:47:12.908Z,1.90
2023-03-04T11:52:26.881Z,1.30
2023-03-04T11:57:44.143Z,1.70
2023-03-04T12:03:13.257Z,1.48
2023-03-04T12:08:40.101Z,1.70
2023-03-04T12:14:10.315Z,1.50
2023-03-04T12:19:25.826Z,2.15
2023-03-04T12:24:48.438Z,1.98
2023-03-04T12:29:59.839Z,1.45
2023-03-04T12:35:34.129Z,1.75
2023-03-04T12:40:48.972Z,1.42
2023-03-04T12:46:02.408Z,1.52
2023-03-04T12:51:27.230Z,1.33
2023-03-04T12:56:38.986Z,1.70
2023-03-04T13:01:47.610Z,2.35
2023-03-04T13:07:08.374Z,2.28
2023-03-04T13:12:20.952Z,2.45
2023-03-04T13:17:43.920Z,1.88
2023-03-04T13:22:53.566Z,2.72
2023-03-04T13:28:20.273Z,1.75
2023-03-04T13:34:01.845Z,1.38
2023-03-04T13:39:30.046Z,1.42
2023-03-04T13:45:01.351Z,1.35
2023-03-04T13:50:47.307Z,1.92
2023-03-04T13:56:21.446Z,2.33
2023-03-04T14:01:31.903Z,2.40
2023-03-04T14:06:35.209Z,4.47
2023-03-04T14:11:42.451Z,3.45
2023-03-04T14:16:51.393Z,3.13
2023-03-04T14:21:55.234Z,4.07
2023-03-04T14:27:13.365Z,3.38
2023-03-04T14:32:17.997Z,2.28
2023-03-04T14:37:24.698Z,1.60
2023-03-04T14:42:41.732Z,2.47
2023-03-04T14:47:49.207Z,1.92
2023-03-04T14:53:12.453Z,3.50
2023-03-04T14:58:22.760Z,3.03
2023-03-04T15:03:30.791Z,2.45
2023-03-04T15:08:38.421Z,2.10
2023-03-04T15:13:44.154Z,2.17
2023-03-04T15:19:00.314Z,1.65
2023-03-04T15:24:04.363Z,2.08
2023-03-04T15:29:14.738Z,2.58
2023-03-04T15:34:21.586Z,2.35
2023-03-04T15:39:26.419Z,2.05
2023-03-04T15:44:29.726Z,1.83
2023-03-04T15:49:34.371Z,1.60
2023-03-04T15:54:37.700Z,2.10
2023-03-04T15:59:41.603Z,1.42
2023-03-04T16:04:46.184Z,1.75
2023-03-04T16:09:53.063Z,1.35
2023-03-04T16:20:41.120Z,1.42
2023-03-04T16:25:45.430Z,1.15
2023-03-04T16:30:48.981Z,1.25
2023-03-04T16:35:53.829Z,0.93
2023-03-04T16:40:58.892Z,1.52
2023-03-04T16:46:02.370Z,1.13
2023-03-04T16:51:15.781Z,0.85
2023-03-04T16:56:20.398Z,1.15
2023-03-04T17:01:26.277Z,1.60
2023-03-04T17:06:30.984Z,0.73
2023-03-04T17:11:34.735Z,1.08
2023-03-04T17:16:38.078Z,2.10
2023-03-04T17:21:42.832Z,1.33
2023-03-04T17:26:46.143Z,0.77
2023-03-04T17:31:50.046Z,0.98
2023-03-04T17:36:54.695Z,1.15
2023-03-04T17:41:58.424Z,1.20
2023-03-04T17:47:01.738Z,1.48
2023-03-04T17:52:06.968Z,1.42
2023-03-04T17:57:10.414Z,1.52
2023-03-04T18:02:16.394Z,1.42
2023-03-04T18:07:21.522Z,1.00
2023-03-04T18:12:25.241Z,0.98
2023-03-04T18:17:28.642Z,1.40
2023-03-04T18:22:33.753Z,1.30
2023-03-04T18:27:39.700Z,1.75
2023-03-04T18:32:51.879Z,1.65
2023-03-04T18:37:57.087Z,1.85
2023-03-04T18:43:00.579Z,2.80
2023-03-04T18:48:03.946Z,2.78
2023-03-04T18:53:08.823Z,2.00
2023-03-04T18:58:12.371Z,1.40
2023-03-04T19:03:15.873Z,1.27
2023-03-04T19:08:20.529Z,1.60
2023-03-04T19:13:23.980Z,1.67
2023-03-04T19:18:28.942Z,1.60
2023-03-04T19:23:33.534Z,2.30
2023-03-04T19:28:37.019Z,1.90
2023-03-04T19:33:41.050Z,2.10
2023-03-04T19:38:45.685Z,1.80
2023-03-04T19:43:48.980Z,2.00
2023-03-04T19:48:52.214Z,2.00
2023-03-04T19:53:57.256Z,2.05
2023-03-04T19:59:02.157Z,2.80
2023-03-04T20:04:08.595Z,1.87
2023-03-04T20:09:15.206Z,1.98
2023-03-04T20:14:18.812Z,1.40
2023-03-04T20:19:22.488Z,1.67
2023-03-04T20:24:27.966Z,1.63
2023-03-04T20:29:31.317Z,1.95
2023-03-04T20:34:36.885Z,1.70
2023-03-04T20:39:41.496Z,2.78
2023-03-04T20:44:44.890Z,1.77
2023-03-04T20:49:48.237Z,2.05
2023-03-04T20:54:53.573Z,2.13
2023-03-04T20:59:57.614Z,1.88
2023-03-04T21:05:02.629Z,2.72
2023-03-04T21:10:11.610Z,2.85
2023-03-04T21:15:15.245Z,3.05
2023-03-04T21:20:19.006Z,1.52
2023-03-04T21:25:24.223Z,1.45
2023-03-04T21:30:27.903Z,1.80
2023-03-04T21:35:33.890Z,3.15
2023-03-04T21:40:38.541Z,3.33
2023-03-04T21:45:41.893Z,2.43
2023-03-04T21:50:45.744Z,3.05
2023-03-04T21:55:53.221Z,3.30
2023-03-04T22:00:57.578Z,3.95
2023-03-04T22:06:05.476Z,3.45
2023-03-04T22:11:12.456Z,2.88
2023-03-04T22:16:15.993Z,2.25
2023-03-04T22:21:21.066Z,3.08
2023-03-04T22:26:32.652Z,2.90
2023-03-04T22:31:37.810Z,1.83
2023-03-04T22:36:43.859Z,1.80
2023-03-04T22:41:48.602Z,1.80
2023-03-04T22:46:51.952Z,1.80
2023-03-04T22:51:55.259Z,1.70
2023-03-04T22:56:59.879Z,2.28
2023-03-04T23:02:03.630Z,1.63
2023-03-04T23:07:06.877Z,2.03
2023-03-04T23:12:11.713Z,1.98
2023-03-04T23:17:14.928Z,1.27
2023-03-04T23:22:18.145Z,1.38
2023-03-04T23:27:22.852Z,1.50
2023-03-04T23:32:26.184Z,1.43
2023-03-04T23:37:29.402Z,1.05
2023-03-04T23:42:33.957Z,1.40
2023-03-04T23:47:37.179Z,1.77
2023-03-04T23:52:40.586Z,0.90
2023-03-04T23:57:45.508Z,1.38
